createdAt,value
2023-03-20T00:02:00.302Z,20.42
2023-03-20T00:04:27.397Z,16.00
2023-03-20T00:06:54.502Z,16.95
2023-03-20T00:09:21.465Z,16.90
2023-03-20T00:11:51.375Z,15.65
2023-03-20T00:16:49.654Z,17.35
2023-03-20T00:19:23.214Z,16.55
2023-03-20T00:21:52.441Z,16.50
2023-03-20T00:24:20.127Z,18.05
2023-03-20T00:26:49.313Z,16.42
2023-03-20T00:29:26.743Z,16.48
2023-03-20T00:31:55.147Z,18.77
2023-03-20T00:34:31.072Z,17.27
2023-03-20T00:36:58.188Z,16.45
2023-03-20T00:39:25.236Z,17.38
2023-03-20T00:41:57.436Z,17.23
2023-03-20T00:44:54.309Z,16.77
2023-03-20T00:47:25.331Z,17.08
2023-03-20T00:49:54.566Z,16.15
2023-03-20T00:52:22.806Z,17.52
2023-03-20T00:57:31.009Z,17.52
2023-03-20T01:00:29.076Z,17.20
2023-03-20T01:02:58.144Z,17.50
2023-03-20T01:05:27.526Z,17.23
2023-03-20T01:07:55.820Z,16.85
2023-03-20T01:10:28.352Z,17.02
2023-03-20T01:12:58.245Z,17.67
2023-03-20T01:15:32.068Z,16.77
2023-03-20T01:17:59.037Z,16.75
2023-03-20T01:20:30.260Z,18.80
2023-03-20T01:22:57.595Z,17.05
2023-03-20T01:25:24.632Z,18.42
2023-03-20T01:27:54.439Z,15.68
2023-03-20T01:30:29.366Z,17.63
2023-03-20T01:32:57.703Z,17.73
2023-03-20T01:35:27.701Z,19.00
2023-03-20T01:37:56.298Z,19.58
2023-03-20T01:40:39.850Z,19.40
2023-03-20T01:43:16.860Z,17.77
2023-03-20T01:46:21.407Z,18.50
2023-03-20T01:48:53.510Z,17.30
2023-03-20T01:51:23.100Z,17.25
2023-03-20T01:54:02.415Z,17.70
2023-03-20T01:56:42.847Z,18.63
2023-03-20T01:59:21.771Z,18.65
2023-03-20T02:01:48.753Z,17.80
2023-03-20T02:04:26.166Z,16.92
2023-03-20T02:06:58.399Z,17.88
2023-03-20T02:09:40.731Z,18.48
2023-03-20T02:12:13.463Z,18.75
2023-03-20T02:14:41.231Z,17.50
2023-03-20T02:17:24.186Z,20.75
2023-03-20T02:20:46.741Z,19.48
2023-03-20T02:23:48.420Z,16.95
2023-03-20T02:26:37.491Z,16.50
2023-03-20T02:29:45.536Z,17.08
2023-03-20T02:33:11.933Z,15.43
2023-03-20T02:37:05.266Z,18.92
2023-03-20T02:40:07.030Z,17.70
2023-03-20T02:43:26.148Z,17.02
2023-03-20T02:46:29.346Z,18.20
2023-03-20T02:49:05.904Z,19.77
2023-03-20T02:51:37.476Z,17.48
2023-03-20T02:54:45.212Z,16.05
2023-03-20T02:57:26.103Z,19.17
2023-03-20T03:00:09.819Z,16.75
2023-03-20T03:02:48.971Z,20.25
2023-03-20T03:05:23.792Z,18.65
2023-03-20T03:07:56.264Z,19.50
2023-03-20T03:10:33.084Z,20.65
2023-03-20T03:13:03.370Z,18.90
2023-03-20T03:15:35.469Z,19.55
2023-03-20T03:18:07.332Z,17.63
2023-03-20T03:20:38.616Z,17.65
2023-03-20T03:23:07.216Z,17.65
2023-03-20T03:25:38.557Z,19.00
2023-03-20T03:28:28.810Z,18.63
2023-03-20T03:30:57.608Z,20.20
2023-03-20T03:33:30.473Z,18.38
2023-03-20T03:36:21.678Z,16.00
2023-03-20T03:39:21.386Z,22.33
2023-03-20T03:42:07.048Z,17.83
2023-03-20T03:45:14.180Z,19.20
2023-03-20T03:48:04.222Z,14.50
2023-03-20T03:50:48.625Z,19.05
2023-03-20T03:53:22.791Z,18.48
2023-03-20T03:55:57.610Z,21.70
2023-03-20T03:58:57.819Z,18.88
2023-03-20T04:01:27.420Z,19.58
2023-03-20T04:04:01.032Z,22.00
2023-03-20T04:06:28.499Z,20.95
2023-03-20T04:08:55.691Z,14.30
2023-03-20T04:11:25.317Z,22.95
2023-03-20T04:13:53.381Z,22.45
2023-03-20T04:16:24.548Z,21.55
2023-03-20T04:18:52.393Z,19.27
2023-03-20T04:21:19.628Z,22.67
2023-03-20T04:23:46.880Z,21.38
2023-03-20T04:26:14.431Z,20.00
2023-03-20T04:28:41.346Z,23.23
2023-03-20T04:31:20.904Z,21.95
2023-03-20T04:34:09.711Z,22.15
2023-03-20T04:36:36.650Z,21.73
2023-03-20T04:39:06.111Z,22.52
2023-03-20T04:41:33.983Z,19.73
2023-03-20T04:44:00.924Z,19.40
2023-03-20T04:46:28.675Z,18.30
2023-03-20T04:48:55.865Z,21.80
2023-03-20T04:51:26.164Z,27.20
2023-03-20T04:53:54.135Z,23.80
2023-03-20T04:56:21.056Z,23.15
2023-03-20T04:58:49.620Z,23.23
2023-03-20T05:01:18.821Z,20.42
2023-03-20T05:03:46.786Z,18.88
2023-03-20T05:06:13.810Z,25.20
2023-03-20T05:08:42.912Z,21.23
2023-03-20T05:11:10.488Z,24.70
2023-03-20T05:14:00.676Z,24.60
2023-03-20T05:16:41.717Z,23.92
2023-03-20T05:19:43.032Z,19.77
2023-03-20T05:22:19.184Z,23.33
2023-03-20T05:24:55.827Z,23.17
2023-03-20T05:27:47.685Z,22.85
2023-03-20T05:30:34.162Z,22.92
2023-03-20T05:33:33.891Z,21.48
2023-03-20T05:36:09.507Z,23.35
2023-03-20T05:38:50.941Z,21.33
2023-03-20T05:41:31.840Z,21.63
2023-03-20T05:44:30.866Z,24.73
2023-03-20T05:47:17.870Z,22.73
2023-03-20T05:49:57.360Z,22.98
2023-03-20T05:52:49.072Z,15.40
2023-03-20T05:55:38.884Z,19.30
2023-03-20T05:58:35.015Z,16.27
2023-03-20T06:01:23.244Z,18.08
2023-03-20T06:03:59.386Z,19.38
2023-03-20T06:06:48.568Z,18.30
2023-03-20T06:09:15.676Z,18.80
2023-03-20T06:11:42.754Z,20.17
2023-03-20T06:14:10.481Z,19.42
2023-03-20T06:16:40.471Z,20.05
2023-03-20T06:19:07.433Z,18.55
2023-03-20T06:21:36.839Z,19.00
2023-03-20T06:24:05.377Z,17.42
2023-03-20T06:26:32.556Z,17.73
2023-03-20T06:29:03.910Z,16.60
2023-03-20T06:31:32.400Z,17.13
2023-03-20T06:34:00.989Z,20.13
2023-03-20T06:36:28.225Z,15.45
2023-03-20T06:39:01.611Z,15.15
2023-03-20T06:41:34.677Z,14.18
2023-03-20T06:44:05.805Z,16.10
2023-03-20T06:46:53.060Z,14.07
2023-03-20T06:49:20.137Z,15.02
2023-03-20T06:51:48.216Z,17.60
2023-03-20T06:54:27.291Z,16.52
2023-03-20T06:56:55.259Z,15.80
2023-03-20T06:59:22.498Z,15.23
2023-03-20T07:01:50.796Z,14.57
2023-03-20T07:04:17.881Z,14.40
2023-03-20T07:06:52.199Z,16.83
2023-03-20T07:09:19.337Z,18.25
2023-03-20T07:11:46.874Z,16.55
2023-03-20T07:14:15.433Z,17.90
2023-03-20T07:16:48.444Z,18.17
2023-03-20T07:19:15.543Z,16.20
2023-03-20T07:21:45.064Z,16.50
2023-03-20T07:24:14.391Z,17.38
2023-03-20T07:26:41.845Z,18.10
2023-03-20T07:29:08.969Z,17.40
2023-03-20T07:31:36.625Z,17.77
2023-03-20T07:34:23.187Z,19.00
2023-03-20T07:36:51.661Z,16.25
2023-03-20T07:42:14.796Z,16.75
2023-03-20T07:44:45.488Z,14.82
2023-03-20T07:47:12.620Z,17.38
2023-03-20T07:49:39.786Z,17.92
2023-03-20T07:52:09.168Z,17.00
2023-03-20T07:54:36.415Z,17.80
2023-03-20T07:57:05.364Z,18.08
2023-03-20T07:59:32.745Z,18.08
2023-03-20T08:01:59.744Z,17.27
2023-03-20T08:04:29.875Z,15.60
2023-03-20T08:07:04.458Z,14.90
2023-03-20T08:09:31.519Z,19.55
2023-03-20T08:11:58.466Z,17.20
2023-03-20T08:14:25.512Z,14.60
2023-03-20T08:17:10.206Z,16.75
2023-03-20T08:19:39.495Z,15.90
2023-03-20T08:22:07.076Z,17.42
2023-03-20T08:24:34.004Z,16.58
2023-03-20T08:27:00.989Z,17.75
2023-03-20T08:29:28.003Z,16.88
2023-03-20T08:31:56.157Z,15.48
2023-03-20T08:34:24.170Z,12.65
2023-03-20T08:36:52.417Z,13.35
2023-03-20T08:39:19.393Z,16.05
2023-03-20T08:41:46.406Z,15.57
2023-03-20T08:44:13.745Z,15.63
2023-03-20T08:46:40.706Z,12.63
2023-03-20T08:49:07.653Z,15.25
2023-03-20T08:51:34.608Z,11.88
2023-03-20T08:54:01.618Z,12.57
2023-03-20T08:56:28.737Z,11.98
2023-03-20T08:58:56.202Z,11.82
2023-03-20T09:01:23.667Z,10.95
2023-03-20T09:03:50.833Z,13.20
2023-03-20T09:06:18.015Z,10.90
2023-03-20T09:08:44.897Z,10.82
2023-03-20T09:11:11.852Z,11.60
2023-03-20T09:13:38.989Z,12.23
2023-03-20T09:16:06.619Z,12.25
2023-03-20T09:18:33.630Z,12.35
2023-03-20T09:21:01.142Z,11.27
2023-03-20T09:23:28.122Z,9.60
2023-03-20T09:25:55.422Z,10.27
2023-03-20T09:28:22.352Z,11.18
2023-03-20T09:30:49.647Z,10.38
2023-03-20T09:33:18.467Z,9.98
2023-03-20T09:35:45.818Z,9.48
2023-03-20T09:38:13.663Z,9.40
2023-03-20T09:41:00.906Z,10.18
2023-03-20T09:43:58.084Z,10.88
2023-03-20T09:46:40.850Z,11.30
2023-03-20T09:49:30.664Z,10.45
2023-03-20T09:52:26.080Z,9.57
2023-03-20T09:54:58.260Z,11.32
2023-03-20T09:57:32.817Z,9.88
2023-03-20T10:00:07.407Z,9.43
2023-03-20T10:03:01.946Z,8.82
2023-03-20T10:05:59.079Z,8.43
2023-03-20T10:08:39.214Z,9.10
2023-03-20T10:11:11.965Z,9.50
2023-03-20T10:14:09.662Z,10.02
2023-03-20T10:17:09.189Z,9.48
2023-03-20T10:19:47.423Z,10.02
2023-03-20T10:22:32.286Z,8.90
2023-03-20T10:25:17.479Z,9.38
2023-03-20T10:27:49.677Z,10.70
2023-03-20T10:30:47.452Z,12.98
2023-03-20T10:33:39.188Z,11.07
2023-03-20T10:36:32.470Z,10.20
2023-03-20T10:39:19.173Z,11.02
2023-03-20T10:41:58.925Z,11.35
2023-03-20T10:44:44.467Z,8.90
2023-03-20T10:47:16.956Z,10.32
2023-03-20T10:49:55.055Z,10.90
2023-03-20T10:52:34.578Z,10.10
2023-03-20T10:55:14.653Z,9.95
2023-03-20T10:57:49.303Z,9.85
2023-03-20T11:00:25.072Z,10.95
2023-03-20T11:02:52.542Z,8.88
2023-03-20T11:05:37.210Z,7.78
2023-03-20T11:08:13.800Z,8.30
2023-03-20T11:10:42.904Z,10.00
2023-03-20T11:13:19.225Z,8.10
2023-03-20T11:15:46.858Z,9.10
2023-03-20T11:18:15.830Z,9.10
2023-03-20T11:20:57.741Z,9.15
2023-03-20T11:23:31.317Z,9.13
2023-03-20T11:26:16.218Z,10.93
2023-03-20T11:28:59.840Z,9.55
2023-03-20T11:31:40.677Z,11.52
2023-03-20T11:34:07.519Z,11.55
2023-03-20T11:36:37.543Z,10.90
2023-03-20T11:39:10.452Z,11.50
2023-03-20T11:41:45.136Z,10.43
2023-03-20T11:44:22.820Z,11.70
2023-03-20T11:47:03.630Z,11.02
2023-03-20T11:49:47.778Z,10.05
2023-03-20T11:52:20.145Z,13.32
2023-03-20T11:54:52.128Z,10.65
2023-03-20T11:57:38.689Z,11.23
2023-03-20T12:00:17.061Z,11.13
2023-03-20T12:02:45.041Z,10.63
2023-03-20T12:05:33.055Z,10.30
2023-03-20T12:08:20.928Z,9.93
2023-03-20T12:11:01.049Z,10.77
2023-03-20T12:13:35.641Z,9.93
2023-03-20T12:16:08.139Z,11.23
2023-03-20T12:18:44.698Z,9.43
2023-03-20T12:21:34.760Z,10.30
2023-03-20T12:24:41.113Z,11.40
2023-03-20T12:27:37.431Z,9.48
2023-03-20T12:30:18.522Z,11.27
2023-03-20T12:33:12.960Z,10.10
2023-03-20T12:35:47.362Z,10.98
2023-03-20T12:38:34.409Z,10.32
2023-03-20T12:41:19.809Z,10.70
2023-03-20T12:43:52.457Z,10.23
2023-03-20T12:46:51.928Z,10.02
2023-03-20T12:49:40.263Z,10.77
2023-03-20T12:52:15.623Z,10.40
2023-03-20T12:55:21.038Z,10.98
2023-03-20T12:58:02.971Z,10.35
2023-03-20T13:00:51.262Z,11.35
2023-03-20T13:04:14.167Z,10.13
2023-03-20T13:07:07.643Z,9.82
2023-03-20T13:09:44.953Z,9.63
2023-03-20T13:12:37.798Z,10.35
2023-03-20T13:15:28.679Z,9.98
2023-03-20T13:18:13.997Z,9.80
2023-03-20T13:20:57.152Z,10.48
2023-03-20T13:26:53.792Z,9.45
2023-03-20T13:29:52.878Z,10.23
2023-03-20T13:32:32.200Z,9.68
2023-03-20T13:36:17.655Z,9.75
2023-03-20T13:38:52.323Z,10.07
2023-03-20T13:41:19.221Z,10.35
2023-03-20T13:43:54.350Z,9.48
2023-03-20T13:46:27.814Z,10.35
2023-03-20T13:49:02.507Z,10.13
2023-03-20T13:51:38.659Z,10.07
2023-03-20T13:54:33.122Z,10.05
2023-03-20T13:57:15.720Z,10.13
2023-03-20T14:00:02.091Z,10.40
2023-03-20T14:03:13.363Z,10.43
2023-03-20T14:05:43.901Z,9.73
2023-03-20T14:08:27.167Z,11.25
2023-03-20T14:11:14.787Z,9.98
2023-03-20T14:13:51.797Z,10.82
2023-03-20T14:16:20.323Z,9.93
2023-03-20T14:19:06.271Z,11.35
2023-03-20T14:21:35.657Z,11.60
2023-03-20T14:24:08.019Z,10.75
2023-03-20T14:26:42.260Z,10.30
2023-03-20T14:29:12.423Z,10.77
2023-03-20T14:31:42.144Z,11.82
2023-03-20T14:34:12.187Z,10.05
2023-03-20T14:37:00.859Z,10.27
2023-03-20T14:39:30.529Z,10.75
2023-03-20T14:42:34.251Z,10.77
2023-03-20T14:45:32.202Z,9.45
2023-03-20T14:48:29.086Z,11.45
2023-03-20T14:51:07.361Z,10.13
2023-03-20T14:53:34.570Z,9.43
2023-03-20T14:56:13.332Z,9.18
2023-03-20T14:58:43.338Z,9.68
2023-03-20T15:04:22.018Z,10.07
2023-03-20T15:07:16.062Z,9.25
2023-03-20T15:09:50.243Z,11.18
2023-03-20T15:12:21.753Z,9.88
2023-03-20T15:14:57.943Z,9.98
2023-03-20T15:17:34.504Z,10.30
2023-03-20T15:22:50.816Z,12.10
2023-03-20T15:25:20.683Z,10.70
2023-03-20T15:30:20.002Z,11.25
2023-03-20T15:32:53.029Z,10.65
2023-03-20T15:35:24.007Z,10.45
2023-03-20T15:37:53.282Z,10.57
2023-03-20T15:40:47.503Z,11.00
2023-03-20T15:43:24.367Z,10.60
2023-03-20T15:46:02.900Z,10.88
2023-03-20T15:48:37.264Z,11.43
2023-03-20T15:51:05.587Z,10.48
2023-03-20T15:53:36.647Z,10.82
2023-03-20T15:56:18.088Z,12.48
2023-03-20T15:58:48.008Z,10.55
2023-03-20T16:01:24.264Z,11.00
2023-03-20T16:03:52.963Z,12.25
2023-03-20T16:06:22.612Z,11.38
2023-03-20T16:09:02.780Z,11.02
2023-03-20T16:11:42.665Z,11.05
2023-03-20T16:14:19.319Z,10.73
2023-03-20T16:16:50.547Z,10.77
2023-03-20T16:19:18.252Z,11.40
2023-03-20T16:21:53.886Z,10.60
2023-03-20T16:24:36.332Z,11.85
2023-03-20T16:27:10.409Z,12.80
2023-03-20T16:29:42.953Z,11.43
2023-03-20T16:32:37.034Z,10.32
2023-03-20T16:35:26.702Z,10.13
2023-03-20T16:37:58.953Z,11.60
2023-03-20T16:40:37.024Z,9.88
2023-03-20T16:43:18.034Z,16.33
2023-03-20T16:45:54.497Z,14.80
2023-03-20T16:48:28.622Z,8.57
2023-03-20T16:51:28.837Z,8.60
2023-03-20T16:53:58.958Z,9.85
2023-03-20T16:58:57.230Z,10.18
2023-03-20T17:01:28.043Z,9.82
2023-03-20T17:04:13.909Z,11.25
2023-03-20T17:06:56.365Z,18.33
2023-03-20T17:09:31.066Z,16.88
2023-03-20T17:12:11.417Z,18.85
2023-03-20T17:14:40.344Z,11.02
2023-03-20T17:17:19.573Z,13.50
2023-03-20T17:19:49.952Z,12.00
2023-03-20T17:22:22.260Z,12.38
2023-03-20T17:24:50.804Z,16.08
2023-03-20T17:27:19.903Z,12.80
2023-03-20T17:29:49.369Z,16.00
2023-03-20T17:32:20.000Z,17.60
2023-03-20T17:34:49.457Z,18.90
2023-03-20T17:37:29.460Z,16.17
2023-03-20T17:39:56.684Z,12.05
2023-03-20T17:42:26.845Z,11.30
2023-03-20T17:44:54.047Z,11.95
2023-03-20T17:47:26.791Z,13.98
2023-03-20T17:49:54.675Z,15.32
2023-03-20T17:52:25.976Z,23.10
2023-03-20T17:54:53.345Z,28.52
2023-03-20T17:57:38.657Z,24.20
2023-03-20T18:00:22.432Z,23.35
2023-03-20T18:02:50.502Z,23.35
2023-03-20T18:05:17.942Z,28.73
2023-03-20T18:07:45.094Z,24.70
2023-03-20T18:10:31.909Z,14.32
2023-03-20T18:12:59.845Z,17.33
2023-03-20T18:15:26.728Z,17.85
2023-03-20T18:17:53.857Z,11.38
2023-03-20T18:20:34.099Z,10.38
2023-03-20T18:23:01.163Z,14.98
2023-03-20T18:25:28.400Z,12.15
2023-03-20T18:27:57.468Z,14.05
2023-03-20T18:30:41.420Z,15.95
2023-03-20T18:33:08.680Z,17.17
2023-03-20T18:35:37.230Z,16.75
2023-03-20T18:38:05.627Z,18.63
2023-03-20T18:40:36.512Z,13.30
2023-03-20T18:43:04.233Z,12.07
2023-03-20T18:45:32.146Z,15.93
2023-03-20T18:47:59.937Z,22.25
2023-03-20T18:50:37.117Z,14.75
2023-03-20T18:53:06.994Z,14.15
2023-03-20T18:55:35.251Z,14.65
2023-03-20T18:58:03.836Z,12.82
2023-03-20T19:00:38.266Z,21.60
2023-03-20T19:03:07.416Z,18.30
2023-03-20T19:05:34.399Z,17.73
2023-03-20T19:08:03.137Z,20.58
2023-03-20T19:10:38.735Z,22.42
2023-03-20T19:13:07.580Z,16.58
2023-03-20T19:15:37.274Z,15.88
2023-03-20T19:18:17.276Z,16.00
2023-03-20T19:20:56.337Z,14.40
2023-03-20T19:23:25.845Z,16.20
2023-03-20T19:25:55.172Z,16.70
2023-03-20T19:28:37.611Z,15.05
2023-03-20T19:31:06.269Z,16.92
2023-03-20T19:33:33.346Z,15.27
2023-03-20T19:36:11.935Z,16.60
2023-03-20T19:38:39.269Z,14.70
2023-03-20T19:41:09.018Z,13.55
2023-03-20T19:43:51.484Z,15.88
2023-03-20T19:46:36.161Z,14.98
2023-03-20T19:49:06.762Z,16.45
2023-03-20T19:51:34.026Z,16.27
2023-03-20T19:54:00.895Z,13.45
2023-03-20T19:56:27.842Z,12.85
2023-03-20T19:58:55.047Z,14.15
2023-03-20T20:01:25.455Z,15.07
2023-03-20T20:03:53.850Z,11.20
2023-03-20T20:06:22.756Z,11.23
2023-03-20T20:08:50.569Z,12.95
2023-03-20T20:11:20.082Z,13.95
2023-03-20T20:14:04.846Z,13.00
2023-03-20T20:16:35.980Z,15.95
2023-03-20T20:19:04.576Z,11.68
2023-03-20T20:22:17.297Z,13.35
2023-03-20T20:24:23.173Z,14.52
2023-03-20T20:27:15.304Z,14.65
2023-03-20T20:29:48.022Z,11.88
2023-03-20T20:32:16.225Z,15.27
2023-03-20T20:40:20.569Z,13.90
2023-03-20T20:42:49.260Z,15.13
2023-03-20T20:45:16.202Z,16.70
2023-03-20T20:47:45.173Z,16.67
2023-03-20T20:50:17.987Z,15.05
2023-03-20T20:52:45.527Z,18.25
2023-03-20T20:55:23.098Z,18.35
2023-03-20T20:57:52.701Z,16.33
2023-03-20T21:00:27.361Z,19.23
2023-03-20T21:02:58.576Z,19.88
2023-03-20T21:05:26.931Z,17.30
2023-03-20T21:07:54.461Z,17.40
2023-03-20T21:10:22.244Z,20.20
2023-03-20T21:12:59.216Z,15.30
2023-03-20T21:15:27.490Z,19.92
2023-03-20T21:18:01.207Z,18.55
2023-03-20T21:20:30.914Z,19.80
2023-03-20T21:22:58.345Z,17.50
2023-03-20T21:25:39.267Z,16.38
2023-03-20T21:28:07.173Z,21.77
2023-03-20T21:30:34.381Z,19.02
2023-03-20T21:33:03.318Z,17.50
2023-03-20T21:35:48.086Z,20.55
2023-03-20T21:41:10.965Z,16.45
2023-03-20T21:43:41.581Z,11.05
2023-03-20T21:49:46.519Z,16.17
2023-03-20T21:52:37.415Z,14.50
2023-03-20T21:57:55.732Z,16.67
2023-03-20T22:02:57.054Z,15.52
2023-03-20T22:11:44.993Z,11.43
2023-03-20T22:17:33.201Z,15.68
2023-03-20T22:23:15.319Z,15.98
2023-03-20T22:25:44.347Z,13.77
2023-03-20T22:34:10.472Z,15.60
2023-03-20T22:39:47.985Z,18.85
2023-03-20T22:47:17.800Z,18.23
2023-03-20T22:49:44.792Z,18.55
2023-03-20T22:52:26.432Z,23.33
2023-03-20T22:54:58.567Z,18.13
2023-03-20T22:57:38.508Z,19.77
2023-03-20T23:00:10.453Z,15.80
2023-03-20T23:02:37.703Z,19.58
2023-03-20T23:05:04.858Z,20.30
2023-03-20T23:07:31.991Z,14.80
2023-03-20T23:09:59.029Z,19.05
2023-03-20T23:12:26.093Z,18.67
2023-03-20T23:14:57.066Z,18.92
2023-03-20T23:17:24.035Z,20.67
2023-03-20T23:19:56.575Z,18.45
2023-03-20T23:22:32.130Z,16.08
2023-03-20T23:25:02.804Z,17.45
2023-03-20T23:27:37.022Z,15.68
2023-03-20T23:30:05.306Z,17.08
2023-03-20T23:32:37.282Z,17.27
2023-03-20T23:35:05.806Z,16.35
2023-03-20T23:37:34.705Z,17.00
2023-03-20T23:40:02.110Z,15.95
2023-03-20T23:42:30.923Z,17.02
2023-03-20T23:45:04.357Z,12.75
2023-03-20T23:47:44.234Z,16.65
2023-03-20T23:50:20.694Z,15.18
2023-03-20T23:55:41.228Z,17.35
2023-03-20T23:58:08.428Z,16.60
